Terminal Aerodrome Forecast
Issued by NWS Portland, OR

Home | Current Version | Previous Version | Text Only | Print | Product List | Glossary On
Versions: 1 2 3 4 5 6 7 8 9 10 11 12 13 14 15 16
000
FTUS46 KPQR 161120
TAFSLE
TAF
KSLE 161120Z 1612/1712 19003KT P6SM -RA SCT025 OVC045
     FM161400 17004KT P6SM -RA BKN025 OVC035
     FM162000 19007KT P6SM -RA SCT025 OVC035
     FM170300 24005KT P6SM BKN040
     FM170800 20003KT P6SM -RA SCT025 OVC040=

USA.gov is the U.S. government's official web portal to all federal, state and local government web resources and services.